Time,TemperatureF,DewpointF,PressureIn,WindDirection,WindDirectionDegrees,WindSpeedMPH,WindSpeedGustMPH,Humidity,HourlyPrecipIn,Conditions,Clouds,dailyrainin,SolarRadiationWatts/m^2,SoftwareType,DateUTC
2013-01-10 00:03:00,27.0,14.0,-100.00,East,96,5.0,6.0,57,0.00,,,0.00,0.000000,,2013-01-10 05:03:00,
2013-01-10 00:12:00,27.0,14.0,-100.00,East,96,5.0,6.0,57,0.00,,,0.00,0.000000,,2013-01-10 05:12:00,
2013-01-10 00:22:00,27.0,14.0,-100.00,East,96,5.0,6.0,57,0.00,,,0.00,0.000000,,2013-01-10 05:22:00,
2013-01-10 00:32:00,27.0,14.0,-100.00,East,96,5.0,6.0,57,0.00,,,0.00,0.000000,,2013-01-10 05:32:00,
2013-01-10 00:53:00,25.0,14.0,-100.00,ENE,64,5.0,6.0,62,0.00,,,0.00,0.000000,,2013-01-10 05:53:00,
2013-01-10 01:02:00,25.0,14.0,-100.00,ENE,64,5.0,6.0,62,0.00,,,0.00,0.000000,,2013-01-10 06:02:00,
2013-01-10 01:11:00,25.0,14.0,-100.00,ENE,64,5.0,6.0,62,0.00,,,0.00,0.000000,,2013-01-10 06:11:00,
2013-01-10 01:22:00,25.0,14.0,-100.00,ENE,64,5.0,6.0,62,0.00,,,0.00,0.000000,,2013-01-10 06:22:00,
2013-01-10 01:32:00,25.0,14.0,-100.00,ENE,64,5.0,6.0,62,0.00,,,0.00,0.000000,,2013-01-10 06:32:00,
2013-01-10 01:52:00,25.0,14.0,-100.00,NE,51,6.0,7.0,63,0.00,,,0.00,0.000000,,2013-01-10 06:52:00,
2013-01-10 02:02:00,25.0,14.0,-100.00,NE,51,6.0,7.0,63,0.00,,,0.00,0.000000,,2013-01-10 07:02:00,
2013-01-10 02:12:00,25.0,14.0,-100.00,NE,51,6.0,7.0,63,0.00,,,0.00,0.000000,,2013-01-10 07:12:00,
2013-01-10 02:22:00,25.0,14.0,-100.00,NE,51,6.0,7.0,63,0.00,,,0.00,0.000000,,2013-01-10 07:22:00,
2013-01-10 02:32:00,25.0,14.0,-100.00,NE,51,6.0,7.0,63,0.00,,,0.00,0.000000,,2013-01-10 07:32:00,
2013-01-10 02:52:00,24.0,14.0,-100.00,NE,46,7.0,8.0,64,0.00,,,-99.99,0.000000,,2013-01-10 07:52:00,
2013-01-10 03:01:00,24.0,14.0,-100.00,NE,46,7.0,8.0,64,0.00,,,-99.99,0.000000,,2013-01-10 08:01:00,
2013-01-10 03:11:00,24.0,14.0,-100.00,NE,46,7.0,8.0,64,0.00,,,-99.99,0.000000,,2013-01-10 08:11:00,
2013-01-10 03:22:00,24.0,14.0,-100.00,NE,46,7.0,8.0,64,0.00,,,-99.99,0.000000,,2013-01-10 08:22:00,
2013-01-10 03:32:00,24.0,14.0,-100.00,NE,46,7.0,8.0,64,0.00,,,-99.99,0.000000,,2013-01-10 08:32:00,
2013-01-10 03:53:00,23.0,14.0,-100.00,ENE,71,7.0,9.0,69,0.00,,,0.00,0.000000,,2013-01-10 08:53:00,
2013-01-10 04:02:00,23.0,14.0,-100.00,ENE,71,7.0,9.0,69,0.00,,,0.00,0.000000,,2013-01-10 09:02:00,
2013-01-10 04:12:00,23.0,14.0,-100.00,ENE,71,7.0,9.0,69,0.00,,,0.00,0.000000,,2013-01-10 09:12:00,
2013-01-10 04:22:00,23.0,14.0,-100.00,ENE,71,7.0,9.0,69,0.00,,,0.00,0.000000,,2013-01-10 09:22:00,
2013-01-10 04:32:00,23.0,14.0,-100.00,ENE,71,7.0,9.0,69,0.00,,,0.00,0.000000,,2013-01-10 09:32:00,
2013-01-10 04:52:00,23.0,14.0,-100.00,East,87,6.0,9.0,68,0.00,,,0.00,0.000000,,2013-01-10 09:52:00,
2013-01-10 05:02:00,23.0,14.0,-100.00,East,87,6.0,9.0,68,0.00,,,0.00,0.000000,,2013-01-10 10:02:00,
2013-01-10 05:12:00,23.0,14.0,-100.00,East,87,6.0,9.0,68,0.00,,,0.00,0.000000,,2013-01-10 10:12:00,
2013-01-10 05:22:00,23.0,14.0,-100.00,East,87,6.0,9.0,68,0.00,,,0.00,0.000000,,2013-01-10 10:22:00,
2013-01-10 05:32:00,23.0,14.0,-100.00,East,87,6.0,9.0,68,0.00,,,0.00,0.000000,,2013-01-10 10:32:00,
2013-01-10 05:52:00,23.0,15.0,-100.00,East,81,4.0,8.0,71,0.00,,,0.00,0.000000,,2013-01-10 10:52:00,
2013-01-10 06:02:00,23.0,15.0,-100.00,East,81,4.0,8.0,71,0.00,,,0.00,0.000000,,2013-01-10 11:02:00,
2013-01-10 06:12:00,23.0,15.0,-100.00,East,81,4.0,8.0,71,0.00,,,0.00,0.000000,,2013-01-10 11:12:00,
2013-01-10 06:22:00,23.0,15.0,-100.00,East,81,4.0,8.0,71,0.00,,,0.00,0.000000,,2013-01-10 11:22:00,
2013-01-10 06:32:00,23.0,15.0,-100.00,East,81,4.0,8.0,71,0.00,,,0.00,0.000000,,2013-01-10 11:32:00,
2013-01-10 06:53:00,22.0,13.0,-100.00,SE,124,3.0,8.0,69,0.00,,,0.00,0.000000,,2013-01-10 11:53:00,
2013-01-10 07:02:00,22.0,13.0,-100.00,SE,124,3.0,8.0,69,0.00,,,0.00,0.000000,,2013-01-10 12:02:00,
2013-01-10 07:12:00,22.0,13.0,-100.00,SE,124,3.0,8.0,69,0.00,,,0.00,0.000000,,2013-01-10 12:12:00,
2013-01-10 07:22:00,22.0,13.0,-100.00,SE,124,3.0,8.0,69,0.00,,,0.00,0.000000,,2013-01-10 12:22:00,
2013-01-10 07:32:00,22.0,13.0,-100.00,SE,124,3.0,8.0,69,0.00,,,0.00,0.000000,,2013-01-10 12:32:00,
2013-01-10 09:53:00,24.0,13.0,-100.00,NNE,29,3.0,7.0,63,-99.99,,,0.00,0.000000,,2013-01-10 14:53:00,
2013-01-10 10:03:00,24.0,13.0,-100.00,NNE,29,3.0,7.0,63,-99.99,,,0.00,0.000000,,2013-01-10 15:03:00,
2013-01-10 10:12:00,24.0,13.0,-100.00,NNE,29,3.0,7.0,63,-99.99,,,0.00,0.000000,,2013-01-10 15:12:00,
2013-01-10 10:22:00,24.0,13.0,-100.00,NNE,29,3.0,7.0,63,-99.99,,,0.00,0.000000,,2013-01-10 15:22:00,
2013-01-10 10:32:00,24.0,13.0,-100.00,NNE,29,3.0,7.0,63,-99.99,,,0.00,0.000000,,2013-01-10 15:32:00,
2013-01-10 10:53:00,24.0,13.0,-100.00,East,80,7.0,9.0,61,0.00,,,0.00,25.000000,,2013-01-10 15:53:00,
2013-01-10 11:02:00,24.0,13.0,-100.00,East,80,7.0,9.0,61,0.00,,,0.00,25.000000,,2013-01-10 16:02:00,
2013-01-10 11:12:00,24.0,13.0,-100.00,East,80,7.0,9.0,61,0.00,,,0.00,25.000000,,2013-01-10 16:12:00,
2013-01-10 11:22:00,24.0,13.0,-100.00,East,80,7.0,9.0,61,0.00,,,0.00,25.000000,,2013-01-10 16:22:00,
2013-01-10 11:32:00,24.0,13.0,-100.00,East,80,7.0,9.0,61,0.00,,,0.00,25.000000,,2013-01-10 16:32:00,
2013-01-10 11:53:00,27.0,13.0,-100.00,NE,55,4.0,14.0,56,0.00,,,-99.99,112.000000,,2013-01-10 16:53:00,
2013-01-10 12:02:00,27.0,13.0,-100.00,NE,55,4.0,14.0,56,0.00,,,-99.99,112.000000,,2013-01-10 17:02:00,
2013-01-10 12:12:00,27.0,13.0,-100.00,NE,55,4.0,14.0,56,0.00,,,-99.99,112.000000,,2013-01-10 17:12:00,
2013-01-10 12:22:00,27.0,13.0,-100.00,NE,55,4.0,14.0,56,0.00,,,-99.99,112.000000,,2013-01-10 17:22:00,
2013-01-10 12:33:00,27.0,13.0,-100.00,NE,55,4.0,14.0,56,0.00,,,-99.99,112.000000,,2013-01-10 17:33:00,
2013-01-10 12:53:00,34.0,11.0,-100.00,SW,217,4.0,12.0,38,0.00,,,0.00,225.000000,,2013-01-10 17:53:00,
2013-01-10 13:03:00,34.0,11.0,-100.00,SW,217,4.0,12.0,38,0.00,,,0.00,225.000000,,2013-01-10 18:03:00,
2013-01-10 13:12:00,34.0,11.0,-100.00,SW,217,4.0,12.0,38,0.00,,,0.00,225.000000,,2013-01-10 18:12:00,
2013-01-10 13:22:00,34.0,11.0,-100.00,SW,217,4.0,12.0,38,0.00,,,0.00,225.000000,,2013-01-10 18:22:00,
2013-01-10 13:32:00,34.0,11.0,-100.00,SW,217,4.0,12.0,38,0.00,,,0.00,225.000000,,2013-01-10 18:32:00,
2013-01-10 13:53:00,31.0,11.0,-100.00,WSW,243,8.0,14.0,43,0.00,,,0.00,238.000000,,2013-01-10 18:53:00,
2013-01-10 14:02:00,31.0,11.0,-100.00,WSW,243,8.0,14.0,43,0.00,,,0.00,238.000000,,2013-01-10 19:02:00,
2013-01-10 14:12:00,31.0,11.0,-100.00,WSW,243,8.0,14.0,43,0.00,,,0.00,238.000000,,2013-01-10 19:12:00,
2013-01-10 14:23:00,31.0,11.0,-100.00,WSW,243,8.0,14.0,43,0.00,,,0.00,238.000000,,2013-01-10 19:23:00,
2013-01-10 14:32:00,31.0,11.0,-100.00,WSW,243,8.0,14.0,43,0.00,,,0.00,238.000000,,2013-01-10 19:32:00,
2013-01-10 14:53:00,35.0,11.0,-100.00,West,261,6.0,13.0,37,0.00,,,0.00,210.000000,,2013-01-10 19:53:00,
2013-01-10 15:02:00,35.0,11.0,-100.00,West,261,6.0,13.0,37,0.00,,,0.00,210.000000,,2013-01-10 20:02:00,
2013-01-10 15:12:00,35.0,11.0,-100.00,West,261,6.0,13.0,37,0.00,,,0.00,210.000000,,2013-01-10 20:12:00,
2013-01-10 15:22:00,35.0,11.0,-100.00,West,261,6.0,13.0,37,0.00,,,0.00,210.000000,,2013-01-10 20:22:00,
2013-01-10 15:32:00,35.0,11.0,-100.00,West,261,6.0,13.0,37,0.00,,,0.00,210.000000,,2013-01-10 20:32:00,
2013-01-10 15:53:00,36.0,10.0,-100.00,SSW,192,6.0,12.0,34,0.00,,,0.00,137.000000,,2013-01-10 20:53:00,
2013-01-10 16:03:00,36.0,10.0,-100.00,SSW,192,6.0,12.0,34,0.00,,,0.00,137.000000,,2013-01-10 21:03:00,
2013-01-10 16:12:00,36.0,10.0,-100.00,SSW,192,6.0,12.0,34,0.00,,,0.00,137.000000,,2013-01-10 21:12:00,
2013-01-10 16:22:00,36.0,10.0,-100.00,SSW,192,6.0,12.0,34,0.00,,,0.00,137.000000,,2013-01-10 21:22:00,
2013-01-10 16:32:00,36.0,10.0,-100.00,SSW,192,6.0,12.0,34,0.00,,,0.00,137.000000,,2013-01-10 21:32:00,
2013-01-10 16:53:00,38.0,11.0,-100.00,South,184,10.0,21.0,32,0.00,,,0.00,99.000000,,2013-01-10 21:53:00,
2013-01-10 17:03:00,38.0,11.0,-100.00,South,184,10.0,21.0,32,0.00,,,0.00,99.000000,,2013-01-10 22:03:00,
2013-01-10 17:12:00,38.0,11.0,-100.00,South,184,10.0,21.0,32,0.00,,,0.00,99.000000,,2013-01-10 22:12:00,
2013-01-10 17:23:00,38.0,11.0,-100.00,South,184,10.0,21.0,32,0.00,,,0.00,99.000000,,2013-01-10 22:23:00,
2013-01-10 17:32:00,38.0,11.0,-100.00,South,184,10.0,21.0,32,0.00,,,0.00,99.000000,,2013-01-10 22:32:00,
2013-01-10 18:02:00,38.0,13.0,-100.00,South,181,12.0,23.0,35,0.00,,,0.00,50.000000,,2013-01-10 23:02:00,
2013-01-10 18:12:00,38.0,13.0,-100.00,South,181,12.0,23.0,35,0.00,,,0.00,50.000000,,2013-01-10 23:12:00,
2013-01-10 18:22:00,38.0,13.0,-100.00,South,181,12.0,23.0,35,0.00,,,0.00,50.000000,,2013-01-10 23:22:00,
2013-01-10 18:32:00,38.0,13.0,-100.00,South,181,12.0,23.0,35,0.00,,,0.00,50.000000,,2013-01-10 23:32:00,
2013-01-10 18:53:00,34.0,20.0,-100.00,South,174,14.0,34.0,57,0.00,,,0.00,25.000000,,2013-01-10 23:53:00,
2013-01-10 19:02:00,34.0,20.0,-100.00,South,174,14.0,34.0,57,0.00,,,0.00,25.000000,,2013-01-11 00:02:00,
2013-01-10 19:12:00,34.0,20.0,-100.00,South,174,14.0,34.0,57,0.00,,,0.00,25.000000,,2013-01-11 00:12:00,
2013-01-10 19:22:00,34.0,20.0,-100.00,South,174,14.0,34.0,57,0.00,,,0.00,25.000000,,2013-01-11 00:22:00,
2013-01-10 19:32:00,34.0,20.0,-100.00,South,174,14.0,34.0,57,0.00,,,0.00,25.000000,,2013-01-11 00:32:00,
2013-01-10 19:53:00,36.0,21.0,-100.00,South,173,13.0,33.0,54,0.00,,,0.00,8.000000,,2013-01-11 00:53:00,
2013-01-10 20:02:00,36.0,21.0,-100.00,South,173,13.0,33.0,54,0.00,,,0.00,8.000000,,2013-01-11 01:02:00,
2013-01-10 20:12:00,36.0,21.0,-100.00,South,173,13.0,33.0,54,0.00,,,0.00,8.000000,,2013-01-11 01:12:00,
2013-01-10 20:22:00,36.0,21.0,-100.00,South,173,13.0,33.0,54,0.00,,,0.00,8.000000,,2013-01-11 01:22:00,
2013-01-10 20:32:00,36.0,21.0,-100.00,South,173,13.0,33.0,54,0.00,,,0.00,8.000000,,2013-01-11 01:32:00,
2013-01-10 20:53:00,36.0,22.0,-100.00,South,177,17.0,31.0,57,0.00,,,0.00,0.000000,,2013-01-11 01:53:00,
2013-01-10 21:02:00,36.0,22.0,-100.00,South,177,17.0,31.0,57,0.00,,,0.00,0.000000,,2013-01-11 02:02:00,
2013-01-10 21:12:00,36.0,22.0,-100.00,South,177,17.0,31.0,57,0.00,,,0.00,0.000000,,2013-01-11 02:12:00,
2013-01-10 21:22:00,36.0,22.0,-100.00,South,177,17.0,31.0,57,0.00,,,0.00,0.000000,,2013-01-11 02:22:00,
2013-01-10 21:32:00,36.0,22.0,-100.00,South,177,17.0,31.0,57,0.00,,,0.00,0.000000,,2013-01-11 02:32:00,
2013-01-10 21:54:00,36.0,23.0,-100.00,South,176,12.0,35.0,58,0.00,,,0.00,0.000000,,2013-01-11 02:54:00,
2013-01-10 22:02:00,36.0,23.0,-100.00,South,176,12.0,35.0,58,0.00,,,0.00,0.000000,,2013-01-11 03:02:00,
2013-01-10 22:12:00,36.0,23.0,-100.00,South,176,12.0,35.0,58,0.00,,,0.00,0.000000,,2013-01-11 03:12:00,
2013-01-10 22:22:00,36.0,23.0,-100.00,South,176,12.0,35.0,58,0.00,,,0.00,0.000000,,2013-01-11 03:22:00,
2013-01-10 22:32:00,36.0,23.0,-100.00,South,176,12.0,35.0,58,0.00,,,0.00,0.000000,,2013-01-11 03:32:00,
2013-01-10 22:53:00,37.0,21.0,-100.00,South,177,14.0,28.0,51,0.00,,,0.00,0.000000,,2013-01-11 03:53:00,
2013-01-10 23:02:00,37.0,21.0,-100.00,South,177,14.0,28.0,51,0.00,,,0.00,0.000000,,2013-01-11 04:02:00,
2013-01-10 23:12:00,37.0,21.0,-100.00,South,177,14.0,28.0,51,0.00,,,0.00,0.000000,,2013-01-11 04:12:00,
2013-01-10 23:22:00,37.0,21.0,-100.00,South,177,14.0,28.0,51,0.00,,,0.00,0.000000,,2013-01-11 04:22:00,
2013-01-10 23:32:00,37.0,21.0,-100.00,South,177,14.0,28.0,51,0.00,,,0.00,0.000000,,2013-01-11 04:32:00,
2013-01-10 23:53:00,37.0,21.0,-100.00,South,173,14.0,31.0,52,0.00,,,0.00,0.000000,,2013-01-11 04:53:00,